createdAt,value
2019-04-23T00:02:39.335Z,91.00
2019-04-23T00:04:59.539Z,91.40
2019-04-23T00:07:44.530Z,91.50
2019-04-23T00:10:12.675Z,91.30
2019-04-23T00:12:44.819Z,91.10
2019-04-23T00:15:12.009Z,91.50
2019-04-23T00:17:38.527Z,91.10
2019-04-23T00:20:06.746Z,90.90
2019-04-23T00:22:43.802Z,91.10
2019-04-23T00:27:50.077Z,91.30
2019-04-23T00:30:18.837Z,91.60
2019-04-23T00:32:46.158Z,91.90
2019-04-23T00:35:16.074Z,91.70
2019-04-23T00:37:44.386Z,91.70
2019-04-23T00:40:11.445Z,91.80
2019-04-23T00:42:41.548Z,92.00
2019-04-23T00:45:08.288Z,91.70
2019-04-23T00:47:38.439Z,91.80
2019-04-23T00:52:35.281Z,91.50
2019-04-23T00:57:37.350Z,91.00
2019-04-23T01:00:15.099Z,91.10
2019-04-23T01:05:04.244Z,91.30
2019-04-23T01:07:34.825Z,91.50
2019-04-23T01:10:06.153Z,91.50
2019-04-23T01:12:31.270Z,91.30
2019-04-23T01:14:58.829Z,91.30
2019-04-23T01:17:33.705Z,91.40
2019-04-23T01:20:10.433Z,91.80
2019-04-23T01:22:31.697Z,91.90
2019-04-23T01:25:15.161Z,91.70
2019-04-23T01:28:19.634Z,91.40
2019-04-23T01:30:40.904Z,91.40
2019-04-23T01:33:18.356Z,91.30
2019-04-23T01:35:55.666Z,91.50
2019-04-23T01:38:09.384Z,91.40
2019-04-23T01:41:07.686Z,91.50
2019-04-23T01:43:02.988Z,91.70
2019-04-23T01:45:30.748Z,91.70
2019-04-23T01:47:59.992Z,91.60
2019-04-23T01:50:37.806Z,92.30
2019-04-23T01:53:08.101Z,91.70
2019-04-23T01:58:05.777Z,91.80
2019-04-23T02:00:41.266Z,91.90
2019-04-23T02:03:03.689Z,91.70
2019-04-23T02:05:27.345Z,91.50
2019-04-23T02:10:29.539Z,91.50
2019-04-23T02:12:55.731Z,91.60
2019-04-23T02:15:16.873Z,91.60
2019-04-23T02:17:53.226Z,91.30
2019-04-23T02:20:16.045Z,91.30
2019-04-23T02:25:48.389Z,91.30
2019-04-23T02:27:59.898Z,91.20
2019-04-23T02:30:49.507Z,91.10
2019-04-23T02:35:32.759Z,91.60
2019-04-23T02:38:00.283Z,91.60
2019-04-23T02:40:30.396Z,91.50
2019-04-23T02:43:00.986Z,91.20
2019-04-23T02:45:15.980Z,91.40
2019-04-23T02:47:55.467Z,91.40
2019-04-23T02:50:33.067Z,91.50
2019-04-23T02:52:47.274Z,91.60
2019-04-23T03:00:19.283Z,91.70
2019-04-23T03:05:04.468Z,91.90
2019-04-23T03:15:11.085Z,91.70
2019-04-23T03:17:36.993Z,91.90
2019-04-23T03:20:14.889Z,91.70
2019-04-23T03:23:16.573Z,91.80
2019-04-23T03:25:26.198Z,91.80
2019-04-23T03:27:46.415Z,91.90
2019-04-23T03:30:33.414Z,92.00
2019-04-23T03:35:15.982Z,91.50
2019-04-23T03:37:46.334Z,91.50
2019-04-23T03:40:19.284Z,91.80
2019-04-23T03:42:42.602Z,91.70
2019-04-23T03:47:37.413Z,92.00
2019-04-23T03:52:38.717Z,92.00
2019-04-23T03:55:11.714Z,92.00
2019-04-23T03:57:30.298Z,92.00
2019-04-23T04:07:41.933Z,91.90
2019-04-23T04:09:52.099Z,92.10
2019-04-23T04:15:01.199Z,91.60
2019-04-23T04:17:19.660Z,91.90
2019-04-23T04:20:02.388Z,92.20
2019-04-23T04:27:32.220Z,92.20
2019-04-23T04:29:56.544Z,92.20
2019-04-23T04:32:06.470Z,91.90
2019-04-23T04:35:07.287Z,92.00
2019-04-23T04:39:42.980Z,92.40
2019-04-23T04:44:43.269Z,92.50
2019-04-23T04:49:42.241Z,92.40
2019-04-23T04:54:22.933Z,92.40
2019-04-23T04:57:08.022Z,92.00
2019-04-23T04:59:29.273Z,92.10
2019-04-23T05:04:27.889Z,92.00
2019-04-23T05:07:04.454Z,92.00
2019-04-23T05:09:25.200Z,91.90
2019-04-23T05:11:51.877Z,91.70
2019-04-23T05:14:13.392Z,92.20
2019-04-23T05:16:47.057Z,92.20
2019-04-23T05:19:22.254Z,92.10
2019-04-23T05:21:46.659Z,92.00
2019-04-23T05:24:08.308Z,92.10
2019-04-23T05:26:51.665Z,91.90
2019-04-23T05:29:04.803Z,92.20
2019-04-23T05:31:27.920Z,92.40
2019-04-23T05:34:02.991Z,92.30
2019-04-23T05:36:35.870Z,92.50
2019-04-23T05:43:54.363Z,92.60
2019-04-23T05:46:30.832Z,92.60
2019-04-23T05:51:27.950Z,92.40
2019-04-23T20:34:34.118Z,89.10
2019-04-23T20:36:49.300Z,88.80
2019-04-23T20:42:07.568Z,87.90
2019-04-23T20:44:35.131Z,87.90
2019-04-23T20:47:00.115Z,87.30
2019-04-23T20:49:28.451Z,86.90
2019-04-23T20:52:00.452Z,86.50
2019-04-23T20:54:35.486Z,86.90
2019-04-23T20:57:22.865Z,86.10
2019-04-23T20:59:49.713Z,85.90
2019-04-23T21:02:27.256Z,85.80
2019-04-23T21:04:58.939Z,85.40
2019-04-23T21:07:52.604Z,84.90
2019-04-23T21:12:52.552Z,85.40
2019-04-23T21:15:10.378Z,85.30
2019-04-23T21:17:37.647Z,84.70
2019-04-23T21:20:08.861Z,85.20
2019-04-23T21:24:51.493Z,86.00
2019-04-23T21:27:43.474Z,85.20
2019-04-23T21:32:52.619Z,86.40
2019-04-23T21:35:05.315Z,85.30
2019-04-23T21:37:42.820Z,85.60
2019-04-23T21:40:32.551Z,85.60
2019-04-23T21:42:55.985Z,85.30
2019-04-23T21:45:19.337Z,84.90
2019-04-23T21:47:53.426Z,84.90
2019-04-23T21:50:20.130Z,85.00
2019-04-23T21:52:41.655Z,85.00
2019-04-23T21:55:10.896Z,85.10
2019-04-23T22:00:08.656Z,85.30
2019-04-23T22:02:49.517Z,84.90
2019-04-23T22:07:47.735Z,85.30
2019-04-23T22:10:07.290Z,85.20
2019-04-23T22:12:34.169Z,85.00
2019-04-23T22:17:25.082Z,84.90
2019-04-23T22:20:06.098Z,85.00
2019-04-23T22:22:28.625Z,84.90
2019-04-23T22:24:54.586Z,85.00
2019-04-23T22:27:16.214Z,85.70
2019-04-23T22:29:51.957Z,84.50
2019-04-23T22:32:33.943Z,84.50
2019-04-23T22:34:57.195Z,84.00
2019-04-23T22:37:23.176Z,84.30
2019-04-23T22:39:52.500Z,84.60
2019-04-23T22:42:36.386Z,84.40
2019-04-23T22:47:08.760Z,84.20
2019-04-23T22:50:02.612Z,84.40
2019-04-23T22:52:25.027Z,84.30
2019-04-23T22:54:58.967Z,84.80
2019-04-23T22:57:09.135Z,85.00
2019-04-23T23:00:02.560Z,85.10
2019-04-23T23:02:15.075Z,85.30
2019-04-23T23:05:06.355Z,85.40
2019-04-23T23:07:22.369Z,85.70
2019-04-23T23:12:14.353Z,86.00
2019-04-23T23:14:52.168Z,86.20
2019-04-23T23:17:11.417Z,86.30
2019-04-23T23:24:37.602Z,86.20
2019-04-23T23:27:11.685Z,85.80
2019-04-23T23:29:27.683Z,85.60
2019-04-23T23:34:36.682Z,85.40
2019-04-23T23:37:02.118Z,85.70
2019-04-23T23:41:56.989Z,86.80
2019-04-23T23:44:34.023Z,85.70
2019-04-23T23:47:03.186Z,85.70
2019-04-23T23:49:27.940Z,85.70
2019-04-23T23:51:49.291Z,85.80
2019-04-23T23:54:26.642Z,85.60
2019-04-23T23:56:54.789Z,85.70
